Hardin, MT (59034)

6:41 AM MDT on June 29, 2017 (GMT -0600)
KMTBUSBY2 | | Change Station

Elev 3480 ft 45.63 °N, 107.12 °W | Updated 26 seconds ago

Mostly Cloudy
Mostly Cloudy
55.5 °F
Feels Like 55.5 °F
N
7.5
Wind Variable Wind from WNW
Gusts 11.0 mph

Today
High -- | Low -- °F
--% Chance of Precip.
Yesterday
High -- | Low -- °F
Precip. -- in
Pressure 29.89 in
Visibility 10.0 miles
Clouds Scattered Clouds 10000 ft
Mostly Cloudy 15000 ft
Mostly Cloudy 20000 ft
Dew Point 45 °F
Humidity 67%
Rainfall 0.00 in
Snow Depth Not available.
5:23 AM 9:04 PM
Waxing Crescent, 35% visible
METAR KBIL 291153Z 29010KT 10SM SCT100CB BKN150 BKN200 16/05 A2994 RMK AO2 SLP120 VIRGA CB SW MOV E 70005 T01610050 10172 20144 53019
Pressure 29.89 in
Visibility 10.0 miles
Clouds Scattered Clouds 10000 ft
Mostly Cloudy 15000 ft
Mostly Cloudy 20000 ft
Dew Point 45 °F
Humidity 67%
Rainfall 0.00 in
Snow Depth Not available.
5:23 AM 9:04 PM
Waxing Crescent, 35% visible
METAR KBIL 291153Z 29010KT 10SM SCT100CB BKN150 BKN200 16/05 A2994 RMK AO2 SLP120 VIRGA CB SW MOV E 70005 T01610050 10172 20144 53019

Get Severe Weather Alerts

Thanks for signing up!

Be on the lookout for a verification email in your inbox.

You'll start receiving the daily forecast at 6 AM.

×

10-Day Weather Forecast

Almanac

Astronomy

Jun. 29, 2017 Rise Set
Actual Time
Civil Twilight
Nautical Twilight
Astronomical Twilight
Moon
Length of Visible Light
Length of Day
Tomorrow will be .
, % of the Moon is Illuminated

Today's Extremes

State Highs State Lows

Community

WunderPhotos

Category 6

Welcome to Category 6. This is the collective home for Weather Underground's featured writeups by Dr. Jeff Masters (right), Bob Henson (left), Chris Burt, and other regular contributors.

Nearby

Air Quality

  Air Quality AQ Index Pollutant
Not available.

Snow Depth

Station Depth Elevation

Earthquake Activity

City Distance Mag. Time & Date
Minimum magnitude displayed is 2.5.

Coastal Water Temperatures

Place Temperature

Stations

Nearby Weather Stations

Station Location Temp. Windchill Dew Point Humidity Wind Precip. Elev Updated Type
                   

Watches & Warnings

There are currently no watches in effect.